Time;durP1;ratioP1;P1;durP2;ratioP2;P2;SDS_P1;SDS_P2;PMS_P1;PMS_P2;Temp;Humidity;BMP_temperature;BMP_pressure;BME280_temperature;BME280_humidity;BME280_pressure;Samples;Min_cycle;Max_cycle;Signal;HPM_P1;HPM_P2
2022/01/27 00:02:22;;;;;;;34.97;20.57;;;3.40;99.90;;;;;;5026236;28;20291;-65
2022/01/27 00:04:51;;;;;;;33.43;21.53;;;3.30;99.90;;;;;;5028640;28;20180;-64
2022/01/27 00:07:17;;;;;;;33.30;19.00;;;3.30;99.90;;;;;;5032512;28;20174;-64
2022/01/27 00:09:49;;;;;;;35.73;21.60;;;3.20;99.90;;;;;;5019435;28;20188;-64
2022/01/27 00:12:18;;;;;;;28.50;18.47;;;3.20;99.90;;;;;;5013821;28;20603;-65
2022/01/27 00:14:47;;;;;;;32.80;18.60;;;3.20;99.90;;;;;;5032135;28;20250;-65
2022/01/27 00:17:26;;;;;;;31.60;21.57;;;3.20;99.90;;;;;;5030916;28;20691;-65
2022/01/27 00:19:51;;;;;;;35.97;21.23;;;3.20;99.90;;;;;;5012458;28;20175;-66
2022/01/27 00:22:17;;;;;;;29.67;20.57;;;3.20;99.90;;;;;;5011760;28;20192;-66
2022/01/27 00:24:42;;;;;;;28.77;20.90;;;3.20;99.90;;;;;;5023720;28;20180;-66
2022/01/27 00:27:08;;;;;;;34.17;21.97;;;3.20;99.90;;;;;;5022969;28;20257;-66
2022/01/27 00:29:34;;;;;;;36.03;21.13;;;3.20;99.90;;;;;;5031451;28;20179;-66
2022/01/27 00:31:59;;;;;;;31.67;20.63;;;3.10;99.90;;;;;;5031635;28;20202;-66
2022/01/27 00:34:25;;;;;;;37.40;22.73;;;3.10;99.90;;;;;;5019184;28;20229;-66
2022/01/27 00:36:50;;;;;;;35.20;22.60;;;3.10;99.90;;;;;;5011987;28;20290;-66
2022/01/27 00:39:16;;;;;;;40.13;23.50;;;3.20;99.90;;;;;;5019717;28;20176;-66
2022/01/27 00:41:42;;;;;;;25.30;20.37;;;3.20;99.90;;;;;;5011789;28;20583;-66
2022/01/27 00:44:08;;;;;;;34.70;22.70;;;3.20;99.90;;;;;;5025112;28;20696;-66
2022/01/27 00:46:36;;;;;;;41.07;22.70;;;3.10;99.90;;;;;;5027267;28;20176;-66
2022/01/27 00:49:01;;;;;;;30.00;19.80;;;3.20;99.90;;;;;;5018830;28;20190;-66
2022/01/27 00:51:31;;;;;;;35.90;22.67;;;3.20;99.90;;;;;;5028650;28;20741;-66
2022/01/27 00:54:20;;;;;;;45.90;23.77;;;3.20;99.90;;;;;;5010946;28;20173;-65
2022/01/27 00:56:52;;;;;;;35.67;21.60;;;3.10;99.90;;;;;;5019805;28;20203;-66
2022/01/27 01:00:03;;;;;;;41.47;22.47;;;3.10;99.90;;;;;;5014451;28;20176;-66
2022/01/27 01:04:39;;;;;;;38.70;23.47;;;3.10;99.90;;;;;;5026654;28;20168;-65
2022/01/27 01:07:06;;;;;;;39.73;24.30;;;3.10;99.90;;;;;;5011796;28;20172;-66
2022/01/27 01:15:15;;;;;;;25.33;17.73;;;3.10;99.90;;;;;;4983683;28;20585;-66
2022/01/27 01:17:51;;;;;;;43.40;20.00;;;3.00;99.90;;;;;;5024376;28;20339;-66
2022/01/27 01:31:11;;;;;;;38.47;21.13;;;3.00;99.90;;;;;;5013502;28;20268;-65
2022/01/27 01:33:39;;;;;;;44.13;22.93;;;3.00;99.90;;;;;;5029119;28;20176;-66
2022/01/27 01:36:14;;;;;;;39.70;21.17;;;3.00;99.90;;;;;;5030390;28;20697;-66
2022/01/27 01:38:41;;;;;;;37.50;21.03;;;3.00;99.90;;;;;;5029128;28;20297;-67
2022/01/27 01:41:07;;;;;;;36.70;21.77;;;3.00;99.90;;;;;;5019921;28;20176;-66
2022/01/27 01:43:32;;;;;;;40.90;22.23;;;2.90;99.90;;;;;;5030907;28;20175;-65
2022/01/27 01:45:58;;;;;;;42.60;23.23;;;3.00;99.90;;;;;;5031195;28;20259;-66
2022/01/27 01:48:24;;;;;;;41.30;22.63;;;3.00;99.90;;;;;;5028582;28;20583;-66
2022/01/27 01:50:50;;;;;;;41.97;22.80;;;3.10;99.90;;;;;;5011368;28;20271;-65
2022/01/27 01:53:16;;;;;;;41.40;23.27;;;3.10;99.90;;;;;;5020195;28;20198;-65
2022/01/27 01:55:42;;;;;;;42.30;23.30;;;3.10;99.90;;;;;;5011012;28;20180;-64
2022/01/27 01:58:08;;;;;;;40.83;23.40;;;3.00;99.90;;;;;;5014179;28;20186;-65
2022/01/27 02:00:35;;;;;;;36.27;20.13;;;3.10;99.90;;;;;;5027786;28;20558;-65
2022/01/27 02:03:01;;;;;;;37.80;22.23;;;3.10;99.90;;;;;;5036335;28;20218;-64
2022/01/27 02:05:31;;;;;;;40.70;21.17;;;3.10;99.90;;;;;;5047284;28;20205;-66
2022/01/27 02:08:37;;;;;;;40.70;22.47;;;3.10;99.90;;;;;;5025280;28;20253;-66
2022/01/27 02:19:18;;;;;;;38.67;21.80;;;3.20;99.90;;;;;;5026202;28;20243;-65
2022/01/27 02:21:52;;;;;;;34.87;20.50;;;3.20;99.90;;;;;;5014337;28;20203;-65
2022/01/27 02:24:19;;;;;;;32.73;21.37;;;3.20;99.90;;;;;;5023538;28;20528;-64
2022/01/27 02:26:48;;;;;;;32.13;21.17;;;3.20;99.90;;;;;;5033901;28;20172;-65
2022/01/27 02:29:14;;;;;;;29.37;19.70;;;3.20;99.90;;;;;;5014931;28;20219;-64
2022/01/27 02:31:39;;;;;;;41.40;21.87;;;3.20;99.90;;;;;;5024296;28;20252;-65
2022/01/27 02:34:05;;;;;;;33.27;21.43;;;3.20;99.90;;;;;;5033964;28;20179;-65
2022/01/27 02:36:33;;;;;;;35.13;21.90;;;3.20;99.90;;;;;;5017821;28;20719;-64
2022/01/27 02:38:59;;;;;;;39.20;20.30;;;3.20;99.90;;;;;;5014623;28;20540;-65
2022/01/27 02:41:27;;;;;;;30.27;19.37;;;3.20;99.90;;;;;;5014363;28;20309;-65
2022/01/27 02:43:56;;;;;;;41.87;24.13;;;3.20;99.90;;;;;;5019302;28;20179;-64
2022/01/27 02:46:29;;;;;;;34.40;21.13;;;3.20;99.90;;;;;;5033912;28;20176;-65
2022/01/27 02:48:55;;;;;;;31.63;22.07;;;3.20;99.90;;;;;;5027817;28;20634;-64
2022/01/27 02:51:20;;;;;;;28.67;20.03;;;3.20;99.90;;;;;;5014027;28;20203;-65
2022/01/27 02:53:46;;;;;;;36.33;19.10;;;3.30;99.90;;;;;;5017990;28;20189;-66
2022/01/27 02:56:12;;;;;;;33.77;19.60;;;3.20;99.90;;;;;;5019794;28;20294;-65
2022/01/27 02:58:37;;;;;;;32.43;20.63;;;3.20;99.90;;;;;;5014914;28;20234;-64
2022/01/27 03:01:04;;;;;;;34.57;20.87;;;3.20;99.90;;;;;;5018217;28;20183;-65
2022/01/27 03:03:30;;;;;;;41.47;24.13;;;3.20;99.90;;;;;;5020553;28;20172;-65
2022/01/27 03:05:55;;;;;;;37.70;20.47;;;3.20;99.90;;;;;;5013614;28;20195;-65
2022/01/27 03:08:21;;;;;;;34.57;21.50;;;3.20;99.90;;;;;;5015194;28;20270;-66
2022/01/27 03:10:58;;;;;;;34.13;21.33;;;3.20;99.90;;;;;;5019174;28;20202;-65
2022/01/27 03:13:23;;;;;;;32.30;22.50;;;3.20;99.90;;;;;;5030076;28;20202;-65
2022/01/27 03:15:49;;;;;;;32.67;21.67;;;3.20;99.90;;;;;;5032675;28;20651;-66
2022/01/27 03:18:14;;;;;;;38.53;21.60;;;3.10;99.90;;;;;;5031193;28;20182;-65
2022/01/27 03:20:40;;;;;;;35.10;20.80;;;3.20;99.90;;;;;;5013385;28;20180;-65
2022/01/27 03:23:07;;;;;;;37.33;21.23;;;3.30;99.90;;;;;;5028636;28;20257;-65
2022/01/27 03:25:32;;;;;;;31.47;20.93;;;3.30;99.90;;;;;;5017534;28;20180;-64
2022/01/27 03:27:58;;;;;;;35.77;20.43;;;3.30;99.90;;;;;;5032553;28;20186;-65
2022/01/27 03:30:24;;;;;;;32.03;22.10;;;3.20;99.90;;;;;;5030994;28;20566;-65
2022/01/27 03:32:50;;;;;;;34.87;21.07;;;3.20;99.90;;;;;;5013258;28;20215;-65
2022/01/27 03:35:15;;;;;;;36.30;21.97;;;3.20;99.90;;;;;;5013868;28;20187;-66
2022/01/27 03:37:41;;;;;;;35.67;21.13;;;3.30;99.90;;;;;;5032783;28;20815;-65
2022/01/27 03:40:08;;;;;;;35.37;19.87;;;3.30;99.90;;;;;;5016984;28;20199;-65
2022/01/27 03:42:39;;;;;;;38.50;21.50;;;3.30;99.90;;;;;;5025142;28;20207;-65
2022/01/27 03:45:05;;;;;;;33.37;19.73;;;3.30;99.90;;;;;;5021431;28;20648;-65
2022/01/27 03:47:31;;;;;;;35.60;21.50;;;3.30;99.90;;;;;;5013191;28;20310;-65
2022/01/27 03:49:56;;;;;;;38.17;21.67;;;3.40;99.90;;;;;;5030929;28;20265;-64
2022/01/27 03:52:22;;;;;;;34.57;19.80;;;3.40;99.90;;;;;;5030930;28;20207;-66
2022/01/27 03:54:48;;;;;;;32.10;19.70;;;3.40;99.90;;;;;;5015183;28;20640;-65
2022/01/27 03:57:14;;;;;;;25.50;18.00;;;3.40;99.90;;;;;;5013022;28;20200;-65
2022/01/27 03:59:40;;;;;;;32.37;19.10;;;3.40;99.90;;;;;;5034042;28;20183;-65
2022/01/27 04:02:05;;;;;;;38.40;19.43;;;3.50;99.90;;;;;;5017781;28;20196;-65
2022/01/27 04:04:31;;;;;;;34.13;18.90;;;3.50;99.90;;;;;;5025230;28;20179;-65
2022/01/27 04:06:58;;;;;;;31.57;19.17;;;3.50;99.90;;;;;;5032358;28;20179;-65
2022/01/27 04:09:24;;;;;;;27.23;18.40;;;3.60;99.90;;;;;;5021194;28;20271;-64
2022/01/27 04:11:50;;;;;;;36.10;19.40;;;3.60;99.90;;;;;;5011380;28;20298;-66
2022/01/27 04:14:16;;;;;;;30.40;18.73;;;3.70;99.90;;;;;;5021454;28;20187;-66
2022/01/27 04:16:41;;;;;;;31.40;18.37;;;3.70;99.90;;;;;;5032077;28;20199;-66
2022/01/27 04:19:07;;;;;;;31.17;18.40;;;3.70;99.90;;;;;;5024261;28;20183;-66
2022/01/27 04:21:33;;;;;;;34.13;18.70;;;3.80;99.90;;;;;;5027340;28;20287;-66
2022/01/27 04:23:59;;;;;;;35.20;17.57;;;3.80;99.90;;;;;;5017194;28;20171;-66
2022/01/27 04:26:33;;;;;;;27.47;17.50;;;3.80;99.90;;;;;;5012389;28;20180;-66
2022/01/27 04:28:59;;;;;;;36.87;18.57;;;3.80;99.90;;;;;;5026897;28;20186;-66
2022/01/27 04:31:27;;;;;;;29.40;17.13;;;3.90;99.90;;;;;;5026677;28;20200;-66
2022/01/27 04:33:53;;;;;;;34.57;19.90;;;3.90;99.90;;;;;;5017268;28;20195;-66
2022/01/27 04:36:29;;;;;;;44.70;23.40;;;3.90;99.90;;;;;;5030158;28;20226;-66
2022/01/27 04:45:24;;;;;;;29.57;16.70;;;4.00;99.90;;;;;;5022003;28;20229;-66
2022/01/27 04:47:22;;;;;;;25.57;16.57;;;4.00;99.90;;;;;;4998905;28;20184;-66
2022/01/27 04:49:47;;;;;;;30.60;18.70;;;4.00;99.90;;;;;;5024664;28;20270;-66
2022/01/27 04:52:13;;;;;;;27.70;17.20;;;4.00;99.90;;;;;;5031432;28;20741;-65
2022/01/27 04:54:52;;;;;;;26.70;17.17;;;4.00;99.90;;;;;;5026851;28;20667;-66
2022/01/27 04:57:18;;;;;;;30.43;18.77;;;4.10;99.90;;;;;;5031664;28;20203;-66
2022/01/27 04:59:45;;;;;;;28.77;18.07;;;4.10;99.90;;;;;;5021226;28;20190;-66
2022/01/27 05:02:30;;;;;;;31.57;18.93;;;4.20;99.90;;;;;;5015199;28;20223;-66
2022/01/27 05:04:55;;;;;;;31.00;17.33;;;4.20;99.90;;;;;;5011826;28;20176;-67
2022/01/27 05:07:21;;;;;;;29.80;19.47;;;4.20;99.90;;;;;;5012949;28;20196;-66
2022/01/27 05:09:54;;;;;;;35.03;18.50;;;4.30;99.90;;;;;;5011416;28;20195;-66
2022/01/27 05:15:23;;;;;;;26.17;17.53;;;4.40;99.90;;;;;;4970015;28;20185;-67
2022/01/27 05:17:51;;;;;;;30.13;18.27;;;4.40;99.90;;;;;;5019208;28;20225;-67
2022/01/27 05:20:16;;;;;;;31.83;19.27;;;4.40;99.90;;;;;;5043241;28;20336;-65
2022/01/27 05:22:42;;;;;;;27.13;17.00;;;4.40;99.90;;;;;;5031018;28;20257;-67
2022/01/27 05:25:08;;;;;;;28.73;19.73;;;4.40;99.90;;;;;;5015399;28;20231;-66
2022/01/27 05:27:33;;;;;;;30.23;18.27;;;4.40;99.90;;;;;;5017596;28;20184;-66
2022/01/27 05:29:59;;;;;;;30.30;18.83;;;4.40;99.90;;;;;;5024544;28;20258;-67
2022/01/27 05:32:24;;;;;;;26.40;18.00;;;4.40;99.90;;;;;;5023447;28;20211;-66
2022/01/27 05:34:50;;;;;;;23.80;17.47;;;4.40;99.90;;;;;;5010868;28;20176;-67
2022/01/27 05:37:16;;;;;;;26.30;17.37;;;4.40;99.90;;;;;;5011734;28;20258;-67
2022/01/27 05:39:41;;;;;;;26.80;16.63;;;4.40;99.90;;;;;;5020894;28;20222;-67
2022/01/27 05:42:07;;;;;;;34.50;16.53;;;4.50;99.90;;;;;;5018745;28;20250;-65
2022/01/27 05:44:33;;;;;;;28.23;17.43;;;4.50;99.90;;;;;;5015522;28;20638;-67
2022/01/27 05:46:59;;;;;;;28.60;17.20;;;4.60;99.90;;;;;;5024538;28;20183;-66
2022/01/27 05:49:24;;;;;;;25.90;16.87;;;4.60;99.90;;;;;;5024610;28;20290;-66
2022/01/27 05:51:50;;;;;;;28.30;17.93;;;4.70;99.90;;;;;;5022430;28;20199;-67
2022/01/27 05:54:15;;;;;;;24.10;16.17;;;4.70;99.90;;;;;;5021749;28;20234;-66
2022/01/27 05:56:41;;;;;;;26.27;16.37;;;4.80;99.90;;;;;;5033431;28;20210;-67
2022/01/27 05:59:07;;;;;;;25.63;15.27;;;4.80;99.90;;;;;;5019021;28;20185;-66
2022/01/27 06:01:33;;;;;;;25.30;16.30;;;4.80;99.90;;;;;;5025734;28;20226;-67
2022/01/27 06:03:58;;;;;;;28.93;17.33;;;4.90;99.90;;;;;;5034867;28;20541;-67
2022/01/27 06:06:24;;;;;;;23.50;14.53;;;4.90;99.90;;;;;;5032106;28;20246;-66
2022/01/27 06:08:49;;;;;;;25.17;16.10;;;5.00;99.90;;;;;;5029376;28;20184;-65
2022/01/27 06:11:15;;;;;;;23.83;14.90;;;5.00;99.90;;;;;;5014744;28;20216;-65
2022/01/27 06:13:41;;;;;;;23.30;15.80;;;5.10;99.90;;;;;;5017769;28;20187;-65
2022/01/27 06:16:10;;;;;;;25.17;16.50;;;5.10;99.90;;;;;;5034746;28;20235;-66
2022/01/27 06:18:40;;;;;;;23.63;15.10;;;5.10;99.90;;;;;;5030498;28;20216;-66
2022/01/27 06:21:07;;;;;;;24.27;14.53;;;5.20;99.90;;;;;;5014715;28;20251;-66
2022/01/27 06:23:33;;;;;;;23.30;16.07;;;5.20;99.90;;;;;;5025064;28;20317;-66
2022/01/27 06:26:00;;;;;;;23.37;14.63;;;5.20;99.90;;;;;;5026648;28;20392;-66
2022/01/27 06:28:25;;;;;;;19.63;15.70;;;5.20;99.90;;;;;;5029485;28;20191;-66
2022/01/27 06:30:51;;;;;;;17.40;14.77;;;5.30;99.90;;;;;;5049421;28;20519;-66
2022/01/27 06:33:17;;;;;;;24.53;16.20;;;5.30;99.90;;;;;;5031014;28;20183;-65
2022/01/27 06:35:43;;;;;;;22.73;15.40;;;5.30;99.90;;;;;;5015423;28;20650;-66
2022/01/27 06:38:08;;;;;;;17.43;13.93;;;5.30;99.90;;;;;;5022804;28;20182;-65
2022/01/27 06:40:34;;;;;;;20.47;15.87;;;5.40;99.90;;;;;;5032822;28;20214;-66
2022/01/27 06:43:00;;;;;;;19.53;14.30;;;5.40;99.90;;;;;;5026487;28;20199;-64
2022/01/27 06:45:26;;;;;;;17.63;13.67;;;5.40;99.90;;;;;;5032706;28;20692;-65
2022/01/27 06:47:51;;;;;;;14.47;12.07;;;5.40;99.90;;;;;;5028358;28;20180;-66
2022/01/27 06:50:17;;;;;;;20.43;15.93;;;5.50;99.90;;;;;;5017269;28;20293;-65
2022/01/27 06:52:43;;;;;;;20.40;13.73;;;5.50;99.90;;;;;;5021797;28;20701;-65
2022/01/27 06:55:10;;;;;;;23.57;15.20;;;5.50;99.90;;;;;;5047452;28;20222;-65
2022/01/27 06:57:36;;;;;;;20.83;15.73;;;5.50;99.90;;;;;;5030535;28;20203;-65
2022/01/27 07:00:05;;;;;;;20.33;14.63;;;5.60;99.90;;;;;;5025130;28;20195;-66
2022/01/27 07:02:30;;;;;;;18.43;14.93;;;5.60;99.90;;;;;;5023422;28;20275;-66
2022/01/27 07:04:57;;;;;;;17.47;13.53;;;5.60;99.90;;;;;;5013747;28;20207;-65
2022/01/27 07:07:22;;;;;;;23.43;16.00;;;5.60;99.90;;;;;;5030361;28;20229;-65
2022/01/27 07:09:48;;;;;;;21.77;14.73;;;5.60;99.90;;;;;;5033259;28;20653;-66
2022/01/27 07:12:13;;;;;;;22.27;14.53;;;5.60;99.90;;;;;;5047759;28;20215;-66
2022/01/27 07:14:39;;;;;;;22.73;16.23;;;5.60;99.90;;;;;;5031255;28;20183;-66
2022/01/27 07:17:05;;;;;;;21.60;16.63;;;5.60;99.90;;;;;;5033043;28;20683;-66
2022/01/27 07:19:31;;;;;;;19.27;14.57;;;5.70;99.90;;;;;;5028381;28;20176;-66
2022/01/27 07:21:57;;;;;;;28.20;16.57;;;5.60;99.90;;;;;;5013003;28;20192;-66
2022/01/27 07:24:23;;;;;;;23.00;14.50;;;5.60;99.90;;;;;;5029151;28;20310;-66
2022/01/27 07:26:48;;;;;;;16.30;12.97;;;5.60;99.90;;;;;;5029297;28;20201;-66
2022/01/27 07:29:14;;;;;;;20.33;13.83;;;5.60;99.90;;;;;;5030508;28;20183;-65
2022/01/27 07:31:40;;;;;;;21.73;15.17;;;5.70;99.90;;;;;;5032405;28;20199;-66
2022/01/27 07:34:05;;;;;;;17.37;13.37;;;5.70;99.90;;;;;;5025826;28;20184;-65
2022/01/27 07:36:31;;;;;;;20.73;14.70;;;5.70;99.90;;;;;;5014667;28;20196;-67
2022/01/27 07:38:57;;;;;;;23.00;16.07;;;5.80;99.90;;;;;;5017979;28;20179;-66
2022/01/27 07:41:23;;;;;;;18.37;14.90;;;5.80;99.90;;;;;;5032830;28;20229;-66
2022/01/27 07:43:49;;;;;;;22.43;15.07;;;5.90;99.90;;;;;;5029260;28;20183;-66
2022/01/27 07:46:15;;;;;;;21.73;14.97;;;5.90;99.90;;;;;;5013063;28;20699;-65
2022/01/27 07:48:41;;;;;;;19.73;15.50;;;5.90;99.90;;;;;;5014176;28;20192;-66
2022/01/27 07:51:11;;;;;;;21.93;14.90;;;6.00;99.90;;;;;;5010989;28;20180;-66
2022/01/27 07:53:38;;;;;;;22.37;15.17;;;6.00;99.90;;;;;;5012505;28;20204;-66
2022/01/27 07:56:04;;;;;;;21.10;14.73;;;6.00;99.90;;;;;;5011719;28;20771;-66
2022/01/27 07:58:31;;;;;;;16.50;13.37;;;6.10;99.90;;;;;;5012039;28;20175;-66
2022/01/27 08:00:57;;;;;;;23.10;15.27;;;6.10;99.90;;;;;;5012622;28;20184;-66
2022/01/27 08:03:23;;;;;;;21.17;15.07;;;6.10;99.90;;;;;;5010772;28;20855;-65
2022/01/27 08:05:49;;;;;;;20.23;15.07;;;6.10;99.90;;;;;;5012633;28;20258;-66
2022/01/27 08:08:14;;;;;;;21.50;17.20;;;6.20;99.90;;;;;;5011466;28;20180;-66
2022/01/27 08:10:40;;;;;;;17.90;14.37;;;6.20;99.90;;;;;;5028363;28;20259;-65
2022/01/27 08:13:09;;;;;;;19.60;14.57;;;6.20;99.90;;;;;;5010685;28;20220;-66
2022/01/27 08:15:35;;;;;;;19.07;14.97;;;6.20;99.90;;;;;;5026947;28;20222;-64
2022/01/27 08:18:02;;;;;;;21.67;14.53;;;6.20;99.90;;;;;;5010451;28;20737;-64
2022/01/27 08:20:28;;;;;;;27.10;16.33;;;6.20;99.90;;;;;;5011795;28;20211;-65
2022/01/27 08:22:55;;;;;;;27.87;16.33;;;6.20;99.90;;;;;;5011343;28;20192;-66
2022/01/27 08:25:22;;;;;;;24.27;17.00;;;6.20;99.90;;;;;;5011792;28;20183;-65
2022/01/27 08:27:51;;;;;;;23.37;15.70;;;6.20;99.90;;;;;;5010386;28;20246;-65
2022/01/27 08:30:19;;;;;;;16.97;13.83;;;6.10;99.90;;;;;;5011794;28;20267;-65
2022/01/27 08:35:12;;;;;;;16.43;12.67;;;6.10;99.90;;;;;;5011788;28;20176;-65
2022/01/27 08:37:38;;;;;;;25.13;16.83;;;6.10;99.90;;;;;;5010091;28;20208;-66
2022/01/27 08:40:05;;;;;;;27.27;16.77;;;6.20;99.90;;;;;;5011400;28;20183;-64
2022/01/27 08:42:31;;;;;;;24.87;16.23;;;6.20;99.90;;;;;;5009674;28;20196;-66
2022/01/27 08:44:57;;;;;;;23.90;17.03;;;6.20;99.90;;;;;;5011223;28;20180;-66
2022/01/27 08:47:22;;;;;;;21.43;15.67;;;6.20;99.90;;;;;;5010001;28;20188;-67
2022/01/27 08:49:48;;;;;;;25.10;15.60;;;6.10;99.90;;;;;;5011711;28;20303;-67
2022/01/27 08:52:14;;;;;;;27.70;17.67;;;6.10;99.90;;;;;;5011052;28;20282;-64
2022/01/27 08:54:40;;;;;;;24.53;16.40;;;6.20;99.90;;;;;;5011162;28;20176;-66
2022/01/27 08:57:06;;;;;;;28.10;17.43;;;6.20;99.90;;;;;;5011066;28;20217;-65
2022/01/27 08:59:32;;;;;;;24.37;17.23;;;6.10;99.90;;;;;;5011138;28;20164;-66
2022/01/27 09:01:57;;;;;;;13.67;12.30;;;6.00;99.90;;;;;;5011153;28;20192;-66
2022/01/27 09:04:23;;;;;;;23.50;16.60;;;6.00;99.90;;;;;;5009921;28;20180;-66
2022/01/27 09:06:48;;;;;;;23.43;15.67;;;6.00;99.90;;;;;;5009639;28;20188;-65
2022/01/27 09:09:14;;;;;;;23.47;17.27;;;6.00;99.90;;;;;;5011298;28;20206;-66
2022/01/27 09:11:43;;;;;;;22.77;17.70;;;6.10;99.90;;;;;;4968089;28;1242688;-66
2022/01/27 09:14:09;;;;;;;20.30;14.67;;;6.00;99.90;;;;;;5010670;28;20237;-66
2022/01/27 09:16:35;;;;;;;20.63;16.53;;;6.00;99.90;;;;;;5010362;28;20662;-65
2022/01/27 09:19:02;;;;;;;28.83;18.80;;;5.90;99.90;;;;;;5011719;28;20686;-66
2022/01/27 09:21:38;;;;;;;23.50;15.60;;;5.80;99.90;;;;;;5012193;28;20192;-65
2022/01/27 09:24:04;;;;;;;26.33;16.07;;;5.80;99.90;;;;;;5009996;28;20229;-66
2022/01/27 09:26:43;;;;;;;28.70;18.10;;;5.70;99.90;;;;;;5011700;28;20615;-66
2022/01/27 09:29:09;;;;;;;25.80;16.67;;;5.70;99.90;;;;;;5012225;28;20172;-67
2022/01/27 09:31:36;;;;;;;27.57;17.10;;;5.60;99.90;;;;;;5011494;28;20222;-67
2022/01/27 09:34:02;;;;;;;29.00;18.53;;;5.60;99.90;;;;;;5010672;28;20376;-67
2022/01/27 09:36:27;;;;;;;26.73;17.73;;;5.60;99.90;;;;;;5010682;28;20627;-68
2022/01/27 09:38:53;;;;;;;23.07;16.50;;;5.60;99.90;;;;;;5011447;28;20174;-66
2022/01/27 09:41:20;;;;;;;15.50;13.30;;;5.60;99.90;;;;;;5011519;28;20274;-65
2022/01/27 09:43:53;;;;;;;21.70;16.37;;;5.50;99.90;;;;;;5011128;28;20172;-66
2022/01/27 09:46:20;;;;;;;23.70;16.17;;;5.60;99.90;;;;;;5011521;28;20177;-66
2022/01/27 09:48:48;;;;;;;38.67;21.47;;;5.60;99.90;;;;;;5011363;28;20172;-66
2022/01/27 09:53:51;;;;;;;22.97;17.57;;;5.60;99.90;;;;;;5014313;28;20180;-67
2022/01/27 09:56:18;;;;;;;31.33;17.47;;;5.60;99.90;;;;;;5018364;28;20203;-66
2022/01/27 09:58:44;;;;;;;29.80;19.33;;;5.60;99.90;;;;;;5036837;28;20186;-66
2022/01/27 10:01:09;;;;;;;28.83;18.53;;;5.60;99.90;;;;;;5031286;28;20237;-68
2022/01/27 10:04:09;;;;;;;26.57;17.20;;;5.60;99.90;;;;;;5033652;28;20629;-67
2022/01/27 10:06:36;;;;;;;23.87;18.17;;;5.60;99.90;;;;;;5034759;28;20274;-65
2022/01/27 10:09:29;;;;;;;22.20;17.50;;;5.70;99.90;;;;;;5048514;28;20595;-68
2022/01/27 10:14:23;;;;;;;19.23;15.70;;;5.70;99.90;;;;;;5046461;28;20736;-66
2022/01/27 10:16:53;;;;;;;25.40;18.70;;;5.70;99.90;;;;;;5030907;28;20203;-66
2022/01/27 10:19:19;;;;;;;27.50;16.83;;;5.70;99.90;;;;;;5032245;28;20262;-66
2022/01/27 10:21:46;;;;;;;22.00;17.07;;;5.80;99.90;;;;;;5050769;28;20658;-67
2022/01/27 10:24:27;;;;;;;31.83;17.97;;;5.80;99.90;;;;;;5049904;28;20163;-67
2022/01/27 10:27:46;;;;;;;24.53;16.23;;;5.80;99.90;;;;;;5033825;28;20237;-63
2022/01/27 10:33:03;;;;;;;23.67;15.57;;;5.80;99.90;;;;;;4987775;28;20204;-67
2022/01/27 10:35:29;;;;;;;19.37;14.20;;;5.90;99.90;;;;;;5023705;28;20183;-66
2022/01/27 10:38:01;;;;;;;27.87;16.40;;;5.90;99.90;;;;;;5054451;28;20298;-66
2022/01/27 10:40:39;;;;;;;20.00;16.03;;;5.90;99.90;;;;;;5054014;28;20209;-66
2022/01/27 10:43:12;;;;;;;23.07;15.67;;;5.90;99.90;;;;;;5054483;28;20186;-66
2022/01/27 10:48:55;;;;;;;28.90;16.80;;;6.00;99.90;;;;;;5011932;28;20266;-66
2022/01/27 10:51:27;;;;;;;17.13;14.50;;;6.00;99.90;;;;;;5046857;28;20168;-64
2022/01/27 10:53:57;;;;;;;20.07;14.60;;;6.10;99.90;;;;;;5035516;28;20329;-64
2022/01/27 10:56:27;;;;;;;21.83;16.70;;;6.10;99.90;;;;;;5052610;28;20316;-64
2022/01/27 10:58:54;;;;;;;32.33;21.77;;;6.10;99.90;;;;;;5050318;28;20175;-64
2022/01/27 11:01:32;;;;;;;27.03;18.00;;;6.10;99.90;;;;;;5033888;28;20178;-63
2022/01/27 11:04:01;;;;;;;16.07;13.80;;;6.10;99.90;;;;;;5035512;28;20175;-63
2022/01/27 11:06:28;;;;;;;21.80;14.83;;;6.10;99.90;;;;;;5053796;28;20175;-64
2022/01/27 11:08:56;;;;;;;28.93;17.90;;;6.10;99.90;;;;;;5052355;28;20167;-64
2022/01/27 11:11:23;;;;;;;21.63;15.53;;;6.20;99.90;;;;;;5033344;28;20197;-64
2022/01/27 11:13:51;;;;;;;26.13;15.83;;;6.20;99.90;;;;;;5039454;28;20706;-64
2022/01/27 11:16:21;;;;;;;18.80;13.10;;;6.30;99.90;;;;;;5051746;28;20211;-67
2022/01/27 11:18:47;;;;;;;20.00;15.03;;;6.30;99.90;;;;;;5046085;28;20176;-64
2022/01/27 11:21:28;;;;;;;20.43;15.73;;;6.40;99.90;;;;;;5042498;28;20174;-64
2022/01/27 11:24:06;;;;;;;24.33;16.37;;;6.50;99.90;;;;;;5045080;28;20175;-62
2022/01/27 11:26:35;;;;;;;17.33;14.10;;;6.50;99.90;;;;;;5032927;28;20588;-64
2022/01/27 11:29:02;;;;;;;24.30;14.97;;;6.60;99.90;;;;;;5039549;28;20684;-63
2022/01/27 11:31:43;;;;;;;20.10;15.17;;;6.50;99.90;;;;;;5053242;28;20178;-65
2022/01/27 11:34:10;;;;;;;12.67;11.37;;;6.60;99.90;;;;;;5034805;28;20175;-65
2022/01/27 11:36:38;;;;;;;19.27;15.47;;;6.60;99.90;;;;;;5032458;28;20230;-65
2022/01/27 11:39:10;;;;;;;14.17;12.60;;;6.60;99.90;;;;;;5047676;28;20581;-65
2022/01/27 11:41:43;;;;;;;22.03;14.97;;;6.60;99.90;;;;;;5052693;28;20186;-65
2022/01/27 11:44:25;;;;;;;18.93;16.40;;;6.60;99.90;;;;;;5050738;28;20175;-66
2022/01/27 11:47:14;;;;;;;22.53;17.37;;;6.60;99.90;;;;;;5052621;28;20175;-64
2022/01/27 11:50:05;;;;;;;21.83;15.17;;;6.70;99.90;;;;;;5011508;28;20285;-64
2022/01/27 11:52:46;;;;;;;18.23;15.00;;;6.70;99.90;;;;;;5016909;28;20590;-64
2022/01/27 11:55:24;;;;;;;23.33;16.57;;;6.70;99.90;;;;;;5052541;28;20171;-64
2022/01/27 11:57:57;;;;;;;24.57;16.33;;;6.70;99.90;;;;;;5038305;28;20211;-64
2022/01/27 12:00:28;;;;;;;24.27;18.93;;;6.60;99.90;;;;;;5031065;28;20175;-64
2022/01/27 12:02:56;;;;;;;22.13;16.47;;;6.60;99.90;;;;;;5044510;28;20566;-64
2022/01/27 12:05:26;;;;;;;22.20;17.73;;;6.60;99.90;;;;;;5039047;28;20237;-64
2022/01/27 12:08:17;;;;;;;19.50;15.80;;;6.70;99.90;;;;;;5042337;28;20683;-64
2022/01/27 12:10:50;;;;;;;24.70;15.57;;;6.70;99.90;;;;;;5052391;28;20163;-65
2022/01/27 12:19:21;;;;;;;16.10;13.47;;;6.60;99.90;;;;;;5049755;28;20187;-65
2022/01/27 12:21:54;;;;;;;20.13;15.00;;;6.60;99.90;;;;;;5028552;28;20691;-65
2022/01/27 12:24:27;;;;;;;16.73;14.33;;;6.60;99.90;;;;;;5024162;28;20179;-65
2022/01/27 12:27:02;;;;;;;23.73;17.83;;;6.60;99.90;;;;;;5041163;28;20259;-64
2022/01/27 12:29:33;;;;;;;20.87;14.27;;;6.70;99.90;;;;;;5052437;28;20176;-64
2022/01/27 12:32:05;;;;;;;20.27;14.77;;;6.70;99.90;;;;;;5035563;28;20261;-64
2022/01/27 12:34:32;;;;;;;17.07;13.47;;;6.70;99.90;;;;;;5032070;28;20173;-65
2022/01/27 12:37:01;;;;;;;17.77;14.77;;;6.70;99.90;;;;;;5046910;28;20214;-65
2022/01/27 12:39:33;;;;;;;16.97;14.70;;;6.60;99.90;;;;;;5051936;28;20311;-64
2022/01/27 12:42:00;;;;;;;20.20;14.57;;;6.60;99.90;;;;;;5035199;28;20276;-65
2022/01/27 12:44:28;;;;;;;17.80;15.10;;;6.60;99.90;;;;;;5051747;28;20167;-64
2022/01/27 12:47:20;;;;;;;15.50;13.20;;;6.60;99.90;;;;;;5036453;28;20180;-64
2022/01/27 12:49:47;;;;;;;17.63;14.57;;;6.60;99.90;;;;;;5026644;28;20191;-64
2022/01/27 12:52:22;;;;;;;15.90;14.10;;;6.60;99.90;;;;;;5046750;28;20194;-65
2022/01/27 12:54:51;;;;;;;13.73;12.33;;;6.60;99.90;;;;;;5051361;28;20166;-65
2022/01/27 12:57:23;;;;;;;17.13;13.87;;;6.70;99.90;;;;;;5035843;28;20258;-65
2022/01/27 12:59:52;;;;;;;16.90;15.03;;;6.70;99.90;;;;;;5031475;28;20168;-65
2022/01/27 13:02:19;;;;;;;18.13;14.03;;;6.70;99.90;;;;;;5044792;28;20272;-65
2022/01/27 13:04:45;;;;;;;15.07;12.73;;;6.60;99.90;;;;;;5039051;28;20186;-66
2022/01/27 13:07:11;;;;;;;13.10;11.80;;;6.60;99.90;;;;;;5031645;28;20175;-65
2022/01/27 13:09:39;;;;;;;16.13;13.50;;;6.60;99.90;;;;;;5041296;28;20186;-65
2022/01/27 13:12:18;;;;;;;15.33;13.13;;;6.70;99.90;;;;;;5050826;28;20195;-66
2022/01/27 13:15:05;;;;;;;13.10;11.83;;;6.80;99.90;;;;;;5040423;28;20178;-64
2022/01/27 13:17:36;;;;;;;17.23;14.07;;;6.80;99.90;;;;;;5031544;28;20199;-66
2022/01/27 13:20:20;;;;;;;16.80;13.07;;;6.80;99.90;;;;;;5043362;28;20663;-66
2022/01/27 13:22:50;;;;;;;15.00;12.97;;;6.90;99.90;;;;;;5043413;28;20235;-66
2022/01/27 13:25:16;;;;;;;14.33;12.57;;;6.90;99.90;;;;;;5030231;28;20221;-66
2022/01/27 13:27:43;;;;;;;14.83;12.57;;;6.90;99.90;;;;;;5037900;28;20171;-67
2022/01/27 13:30:09;;;;;;;14.17;12.63;;;6.90;99.90;;;;;;5049499;28;20324;-66
2022/01/27 13:32:35;;;;;;;13.57;12.17;;;6.90;99.90;;;;;;5032208;28;20201;-65
2022/01/27 13:35:01;;;;;;;12.93;11.57;;;6.90;99.90;;;;;;5051931;28;20328;-65
2022/01/27 13:37:31;;;;;;;16.40;12.90;;;6.90;99.90;;;;;;5051147;28;20209;-66
2022/01/27 13:42:23;;;;;;;16.83;13.73;;;6.90;99.90;;;;;;5050908;28;20186;-66